sensor_id;sensor_type;location;lat;lon;timestamp;P1;durP1;ratioP1;P2;durP2;ratioP2
30543;SDS011;43388;46.308;4.600;2022-11-20T00:01:07;13.63;;;8.15;;
30543;SDS011;43388;46.308;4.600;2022-11-20T00:03:33;11.13;;;7.35;;
30543;SDS011;43388;46.308;4.600;2022-11-20T00:06:03;13.88;;;7.82;;
30543;SDS011;43388;46.308;4.600;2022-11-20T00:08:29;11.75;;;8.00;;
30543;SDS011;43388;46.308;4.600;2022-11-20T00:10:55;9.30;;;7.60;;
30543;SDS011;43388;46.308;4.600;2022-11-20T00:13:21;7.80;;;7.03;;
30543;SDS011;43388;46.308;4.600;2022-11-20T00:15:47;10.50;;;6.60;;
30543;SDS011;43388;46.308;4.600;2022-11-20T00:18:13;7.38;;;6.53;;
30543;SDS011;43388;46.308;4.600;2022-11-20T00:20:39;8.40;;;6.80;;
30543;SDS011;43388;46.308;4.600;2022-11-20T00:23:05;8.82;;;6.65;;
30543;SDS011;43388;46.308;4.600;2022-11-20T00:25:33;8.32;;;6.15;;
30543;SDS011;43388;46.308;4.600;2022-11-20T00:28:00;8.50;;;6.03;;
30543;SDS011;43388;46.308;4.600;2022-11-20T00:30:26;9.40;;;7.03;;
30543;SDS011;43388;46.308;4.600;2022-11-20T00:32:52;8.45;;;6.25;;
30543;SDS011;43388;46.308;4.600;2022-11-20T00:35:18;6.60;;;6.00;;
30543;SDS011;43388;46.308;4.600;2022-11-20T00:37:44;6.82;;;6.22;;
30543;SDS011;43388;46.308;4.600;2022-11-20T00:40:10;7.13;;;5.65;;
30543;SDS011;43388;46.308;4.600;2022-11-20T00:42:36;7.43;;;6.25;;
30543;SDS011;43388;46.308;4.600;2022-11-20T00:45:02;9.23;;;6.38;;
30543;SDS011;43388;46.308;4.600;2022-11-20T00:47:28;10.80;;;7.78;;
30543;SDS011;43388;46.308;4.600;2022-11-20T00:49:54;7.43;;;6.68;;
30543;SDS011;43388;46.308;4.600;2022-11-20T00:52:20;9.40;;;7.30;;
30543;SDS011;43388;46.308;4.600;2022-11-20T00:54:46;9.30;;;7.22;;
30543;SDS011;43388;46.308;4.600;2022-11-20T00:57:12;9.88;;;7.00;;
30543;SDS011;43388;46.308;4.600;2022-11-20T00:59:38;8.23;;;7.43;;
30543;SDS011;43388;46.308;4.600;2022-11-20T01:02:04;10.40;;;7.50;;
30543;SDS011;43388;46.308;4.600;2022-11-20T01:04:30;8.63;;;7.63;;
30543;SDS011;43388;46.308;4.600;2022-11-20T01:06:56;9.40;;;8.32;;
30543;SDS011;43388;46.308;4.600;2022-11-20T01:09:22;11.45;;;8.20;;
30543;SDS011;43388;46.308;4.600;2022-11-20T01:11:48;8.75;;;7.85;;
30543;SDS011;43388;46.308;4.600;2022-11-20T01:14:15;8.60;;;7.78;;
30543;SDS011;43388;46.308;4.600;2022-11-20T01:16:43;11.13;;;7.53;;
30543;SDS011;43388;46.308;4.600;2022-11-20T01:19:13;8.93;;;7.78;;
30543;SDS011;43388;46.308;4.600;2022-11-20T01:21:41;12.85;;;7.78;;
30543;SDS011;43388;46.308;4.600;2022-11-20T01:24:08;10.00;;;7.35;;
30543;SDS011;43388;46.308;4.600;2022-11-20T01:26:36;8.98;;;7.90;;
30543;SDS011;43388;46.308;4.600;2022-11-20T01:29:03;10.63;;;7.72;;
30543;SDS011;43388;46.308;4.600;2022-11-20T01:31:30;7.85;;;6.75;;
30543;SDS011;43388;46.308;4.600;2022-11-20T01:33:57;8.13;;;6.60;;
30543;SDS011;43388;46.308;4.600;2022-11-20T01:36:25;8.77;;;7.05;;
30543;SDS011;43388;46.308;4.600;2022-11-20T01:38:52;6.00;;;5.30;;
30543;SDS011;43388;46.308;4.600;2022-11-20T01:41:18;9.50;;;6.35;;
30543;SDS011;43388;46.308;4.600;2022-11-20T01:44:04;10.57;;;6.40;;
30543;SDS011;43388;46.308;4.600;2022-11-20T01:46:31;7.70;;;5.95;;
30543;SDS011;43388;46.308;4.600;2022-11-20T01:48:59;7.78;;;5.80;;
30543;SDS011;43388;46.308;4.600;2022-11-20T01:53:53;7.55;;;6.28;;
30543;SDS011;43388;46.308;4.600;2022-11-20T01:56:19;6.88;;;5.93;;
30543;SDS011;43388;46.308;4.600;2022-11-20T01:58:48;8.80;;;6.32;;
30543;SDS011;43388;46.308;4.600;2022-11-20T02:01:16;7.15;;;6.35;;
30543;SDS011;43388;46.308;4.600;2022-11-20T02:03:42;7.38;;;6.78;;
30543;SDS011;43388;46.308;4.600;2022-11-20T02:06:14;9.18;;;7.22;;
30543;SDS011;43388;46.308;4.600;2022-11-20T02:08:42;9.93;;;6.70;;
30543;SDS011;43388;46.308;4.600;2022-11-20T02:11:08;9.77;;;7.60;;
30543;SDS011;43388;46.308;4.600;2022-11-20T02:13:35;9.25;;;8.35;;
30543;SDS011;43388;46.308;4.600;2022-11-20T02:16:21;8.73;;;7.75;;
30543;SDS011;43388;46.308;4.600;2022-11-20T02:18:47;8.20;;;7.50;;
30543;SDS011;43388;46.308;4.600;2022-11-20T02:21:19;8.57;;;7.78;;
30543;SDS011;43388;46.308;4.600;2022-11-20T02:26:25;9.35;;;8.23;;
30543;SDS011;43388;46.308;4.600;2022-11-20T02:28:52;9.57;;;8.65;;
30543;SDS011;43388;46.308;4.600;2022-11-20T02:31:19;10.70;;;7.72;;
30543;SDS011;43388;46.308;4.600;2022-11-20T02:33:45;15.32;;;8.02;;
30543;SDS011;43388;46.308;4.600;2022-11-20T02:36:11;8.95;;;8.15;;
30543;SDS011;43388;46.308;4.600;2022-11-20T02:38:40;9.02;;;8.10;;
30543;SDS011;43388;46.308;4.600;2022-11-20T02:41:06;10.45;;;9.38;;
30543;SDS011;43388;46.308;4.600;2022-11-20T02:43:32;9.55;;;7.32;;
30543;SDS011;43388;46.308;4.600;2022-11-20T02:45:58;10.07;;;7.43;;
30543;SDS011;43388;46.308;4.600;2022-11-20T02:48:24;10.50;;;7.45;;
30543;SDS011;43388;46.308;4.600;2022-11-20T02:50:50;11.82;;;7.85;;
30543;SDS011;43388;46.308;4.600;2022-11-20T02:53:16;9.45;;;7.47;;
30543;SDS011;43388;46.308;4.600;2022-11-20T02:55:41;7.55;;;6.85;;
30543;SDS011;43388;46.308;4.600;2022-11-20T02:58:07;7.40;;;6.35;;
30543;SDS011;43388;46.308;4.600;2022-11-20T03:00:33;7.15;;;6.45;;
30543;SDS011;43388;46.308;4.600;2022-11-20T03:03:00;8.95;;;7.30;;
30543;SDS011;43388;46.308;4.600;2022-11-20T03:05:26;8.40;;;6.80;;
30543;SDS011;43388;46.308;4.600;2022-11-20T03:07:52;9.90;;;8.27;;
30543;SDS011;43388;46.308;4.600;2022-11-20T03:10:18;11.15;;;7.45;;
30543;SDS011;43388;46.308;4.600;2022-11-20T03:12:44;8.63;;;6.75;;
30543;SDS011;43388;46.308;4.600;2022-11-20T03:15:10;7.20;;;6.50;;
30543;SDS011;43388;46.308;4.600;2022-11-20T03:17:36;7.15;;;6.43;;
30543;SDS011;43388;46.308;4.600;2022-11-20T03:20:02;7.72;;;5.82;;
30543;SDS011;43388;46.308;4.600;2022-11-20T03:22:29;6.63;;;6.05;;
30543;SDS011;43388;46.308;4.600;2022-11-20T03:24:55;7.95;;;6.43;;
30543;SDS011;43388;46.308;4.600;2022-11-20T03:27:21;9.63;;;5.82;;
30543;SDS011;43388;46.308;4.600;2022-11-20T03:29:47;6.95;;;6.05;;
30543;SDS011;43388;46.308;4.600;2022-11-20T03:32:13;7.13;;;4.80;;
30543;SDS011;43388;46.308;4.600;2022-11-20T03:34:39;5.97;;;5.38;;
30543;SDS011;43388;46.308;4.600;2022-11-20T03:37:05;10.55;;;5.68;;
30543;SDS011;43388;46.308;4.600;2022-11-20T03:39:31;5.78;;;5.35;;
30543;SDS011;43388;46.308;4.600;2022-11-20T03:41:57;5.97;;;4.45;;
30543;SDS011;43388;46.308;4.600;2022-11-20T03:44:23;5.53;;;5.03;;
30543;SDS011;43388;46.308;4.600;2022-11-20T03:46:49;6.63;;;4.70;;
30543;SDS011;43388;46.308;4.600;2022-11-20T03:49:15;6.28;;;5.38;;
30543;SDS011;43388;46.308;4.600;2022-11-20T03:51:41;6.25;;;4.60;;
30543;SDS011;43388;46.308;4.600;2022-11-20T03:54:08;6.10;;;4.78;;
30543;SDS011;43388;46.308;4.600;2022-11-20T03:56:35;6.45;;;5.47;;
30543;SDS011;43388;46.308;4.600;2022-11-20T03:59:01;7.20;;;5.35;;
30543;SDS011;43388;46.308;4.600;2022-11-20T04:01:29;7.88;;;4.90;;
30543;SDS011;43388;46.308;4.600;2022-11-20T04:03:55;8.68;;;5.10;;
30543;SDS011;43388;46.308;4.600;2022-11-20T04:06:23;5.28;;;4.35;;
30543;SDS011;43388;46.308;4.600;2022-11-20T04:08:49;5.00;;;4.60;;
30543;SDS011;43388;46.308;4.600;2022-11-20T04:11:16;5.95;;;5.05;;
30543;SDS011;43388;46.308;4.600;2022-11-20T04:13:45;9.18;;;4.57;;
30543;SDS011;43388;46.308;4.600;2022-11-20T04:16:11;6.25;;;4.40;;
30543;SDS011;43388;46.308;4.600;2022-11-20T04:18:37;6.20;;;4.47;;
30543;SDS011;43388;46.308;4.600;2022-11-20T04:21:03;6.43;;;4.70;;
30543;SDS011;43388;46.308;4.600;2022-11-20T04:23:29;5.78;;;4.80;;
30543;SDS011;43388;46.308;4.600;2022-11-20T04:26:00;6.15;;;4.68;;
30543;SDS011;43388;46.308;4.600;2022-11-20T04:28:27;5.18;;;4.45;;
30543;SDS011;43388;46.308;4.600;2022-11-20T04:30:53;4.75;;;4.35;;
30543;SDS011;43388;46.308;4.600;2022-11-20T04:33:19;5.13;;;4.65;;
30543;SDS011;43388;46.308;4.600;2022-11-20T04:35:45;5.22;;;4.72;;
30543;SDS011;43388;46.308;4.600;2022-11-20T04:38:12;4.60;;;4.18;;
30543;SDS011;43388;46.308;4.600;2022-11-20T04:40:38;5.00;;;4.50;;
30543;SDS011;43388;46.308;4.600;2022-11-20T04:43:04;5.85;;;4.90;;
30543;SDS011;43388;46.308;4.600;2022-11-20T04:45:30;7.88;;;5.50;;
30543;SDS011;43388;46.308;4.600;2022-11-20T04:47:56;6.28;;;5.72;;
30543;SDS011;43388;46.308;4.600;2022-11-20T04:50:22;6.80;;;5.85;;
30543;SDS011;43388;46.308;4.600;2022-11-20T04:52:48;7.00;;;5.95;;
30543;SDS011;43388;46.308;4.600;2022-11-20T04:55:14;6.43;;;5.32;;
30543;SDS011;43388;46.308;4.600;2022-11-20T04:57:40;6.97;;;6.20;;
30543;SDS011;43388;46.308;4.600;2022-11-20T05:00:06;9.90;;;6.00;;
30543;SDS011;43388;46.308;4.600;2022-11-20T05:02:33;9.63;;;5.78;;
30543;SDS011;43388;46.308;4.600;2022-11-20T05:04:59;7.35;;;5.40;;
30543;SDS011;43388;46.308;4.600;2022-11-20T05:07:25;8.32;;;5.25;;
30543;SDS011;43388;46.308;4.600;2022-11-20T05:09:50;8.05;;;5.50;;
30543;SDS011;43388;46.308;4.600;2022-11-20T05:12:16;9.18;;;6.63;;
30543;SDS011;43388;46.308;4.600;2022-11-20T05:14:42;8.18;;;6.82;;
30543;SDS011;43388;46.308;4.600;2022-11-20T05:17:11;11.00;;;7.30;;
30543;SDS011;43388;46.308;4.600;2022-11-20T05:19:37;8.50;;;7.20;;
30543;SDS011;43388;46.308;4.600;2022-11-20T05:22:04;14.52;;;7.93;;
30543;SDS011;43388;46.308;4.600;2022-11-20T05:24:30;10.32;;;7.72;;
30543;SDS011;43388;46.308;4.600;2022-11-20T05:26:56;14.90;;;8.35;;
30543;SDS011;43388;46.308;4.600;2022-11-20T05:29:22;14.40;;;7.70;;
30543;SDS011;43388;46.308;4.600;2022-11-20T05:31:48;15.30;;;8.32;;
30543;SDS011;43388;46.308;4.600;2022-11-20T05:34:14;13.65;;;7.97;;
30543;SDS011;43388;46.308;4.600;2022-11-20T05:36:40;15.80;;;7.72;;
30543;SDS011;43388;46.308;4.600;2022-11-20T05:39:06;15.52;;;8.65;;
30543;SDS011;43388;46.308;4.600;2022-11-20T05:41:32;13.13;;;7.60;;
30543;SDS011;43388;46.308;4.600;2022-11-20T05:43:58;12.25;;;8.40;;
30543;SDS011;43388;46.308;4.600;2022-11-20T05:46:24;10.82;;;6.90;;
30543;SDS011;43388;46.308;4.600;2022-11-20T05:48:50;18.95;;;6.88;;
30543;SDS011;43388;46.308;4.600;2022-11-20T05:51:17;13.85;;;7.32;;
30543;SDS011;43388;46.308;4.600;2022-11-20T05:53:43;15.75;;;8.13;;
30543;SDS011;43388;46.308;4.600;2022-11-20T05:56:11;13.30;;;6.88;;
30543;SDS011;43388;46.308;4.600;2022-11-20T05:58:37;15.18;;;6.72;;
30543;SDS011;43388;46.308;4.600;2022-11-20T06:04:00;13.98;;;7.15;;
30543;SDS011;43388;46.308;4.600;2022-11-20T06:06:26;12.85;;;7.85;;
30543;SDS011;43388;46.308;4.600;2022-11-20T06:08:52;10.82;;;7.07;;
30543;SDS011;43388;46.308;4.600;2022-11-20T06:11:19;13.55;;;7.15;;
30543;SDS011;43388;46.308;4.600;2022-11-20T06:13:45;10.43;;;6.68;;
30543;SDS011;43388;46.308;4.600;2022-11-20T06:16:12;14.32;;;6.68;;
30543;SDS011;43388;46.308;4.600;2022-11-20T06:18:39;10.27;;;6.88;;
30543;SDS011;43388;46.308;4.600;2022-11-20T06:21:06;16.77;;;7.80;;
30543;SDS011;43388;46.308;4.600;2022-11-20T06:23:33;12.65;;;6.38;;
30543;SDS011;43388;46.308;4.600;2022-11-20T06:26:06;12.70;;;7.22;;
30543;SDS011;43388;46.308;4.600;2022-11-20T06:28:32;12.73;;;6.32;;
30543;SDS011;43388;46.308;4.600;2022-11-20T06:30:59;16.40;;;7.38;;
30543;SDS011;43388;46.308;4.600;2022-11-20T06:33:25;14.57;;;6.30;;
30543;SDS011;43388;46.308;4.600;2022-11-20T06:35:51;10.20;;;6.57;;
30543;SDS011;43388;46.308;4.600;2022-11-20T06:38:17;11.20;;;6.07;;
30543;SDS011;43388;46.308;4.600;2022-11-20T06:40:43;9.85;;;6.68;;
30543;SDS011;43388;46.308;4.600;2022-11-20T06:43:09;11.35;;;6.75;;
30543;SDS011;43388;46.308;4.600;2022-11-20T06:45:35;11.57;;;6.65;;
30543;SDS011;43388;46.308;4.600;2022-11-20T06:48:01;10.82;;;6.18;;
30543;SDS011;43388;46.308;4.600;2022-11-20T06:50:27;12.30;;;6.20;;
30543;SDS011;43388;46.308;4.600;2022-11-20T06:52:53;7.70;;;6.10;;
30543;SDS011;43388;46.308;4.600;2022-11-20T06:55:19;17.48;;;6.05;;
30543;SDS011;43388;46.308;4.600;2022-11-20T06:57:45;10.65;;;7.07;;
30543;SDS011;43388;46.308;4.600;2022-11-20T07:00:12;11.45;;;6.53;;
30543;SDS011;43388;46.308;4.600;2022-11-20T07:02:38;17.35;;;6.88;;
30543;SDS011;43388;46.308;4.600;2022-11-20T07:05:04;11.77;;;6.35;;
30543;SDS011;43388;46.308;4.600;2022-11-20T07:07:30;11.13;;;6.50;;
30543;SDS011;43388;46.308;4.600;2022-11-20T07:09:56;13.65;;;8.23;;
30543;SDS011;43388;46.308;4.600;2022-11-20T07:12:23;13.48;;;6.25;;
30543;SDS011;43388;46.308;4.600;2022-11-20T07:14:49;16.23;;;7.18;;
30543;SDS011;43388;46.308;4.600;2022-11-20T07:17:15;14.15;;;6.35;;
30543;SDS011;43388;46.308;4.600;2022-11-20T07:19:41;14.40;;;7.35;;
30543;SDS011;43388;46.308;4.600;2022-11-20T07:22:08;14.40;;;8.18;;
30543;SDS011;43388;46.308;4.600;2022-11-20T07:24:34;15.57;;;8.32;;
30543;SDS011;43388;46.308;4.600;2022-11-20T07:27:00;12.82;;;6.93;;
30543;SDS011;43388;46.308;4.600;2022-11-20T07:29:26;10.90;;;6.95;;
30543;SDS011;43388;46.308;4.600;2022-11-20T07:31:52;11.20;;;6.97;;
30543;SDS011;43388;46.308;4.600;2022-11-20T07:34:20;12.88;;;7.05;;
30543;SDS011;43388;46.308;4.600;2022-11-20T07:36:46;12.10;;;6.38;;
30543;SDS011;43388;46.308;4.600;2022-11-20T07:39:12;14.82;;;6.65;;
30543;SDS011;43388;46.308;4.600;2022-11-20T07:41:38;12.95;;;6.20;;
30543;SDS011;43388;46.308;4.600;2022-11-20T07:44:04;14.52;;;7.07;;
30543;SDS011;43388;46.308;4.600;2022-11-20T07:46:30;15.13;;;7.20;;
30543;SDS011;43388;46.308;4.600;2022-11-20T07:48:56;14.43;;;8.27;;
30543;SDS011;43388;46.308;4.600;2022-11-20T07:51:22;12.90;;;7.57;;
30543;SDS011;43388;46.308;4.600;2022-11-20T07:53:50;17.00;;;7.30;;
30543;SDS011;43388;46.308;4.600;2022-11-20T07:56:16;12.07;;;5.68;;
30543;SDS011;43388;46.308;4.600;2022-11-20T07:58:42;10.85;;;6.80;;
30543;SDS011;43388;46.308;4.600;2022-11-20T08:01:08;15.88;;;5.80;;
30543;SDS011;43388;46.308;4.600;2022-11-20T08:03:35;10.52;;;5.60;;
30543;SDS011;43388;46.308;4.600;2022-11-20T08:06:04;13.90;;;6.43;;
30543;SDS011;43388;46.308;4.600;2022-11-20T08:08:30;13.10;;;7.10;;
30543;SDS011;43388;46.308;4.600;2022-11-20T08:10:56;11.45;;;6.32;;
30543;SDS011;43388;46.308;4.600;2022-11-20T08:13:43;7.28;;;5.38;;
30543;SDS011;43388;46.308;4.600;2022-11-20T08:16:28;17.50;;;6.43;;
30543;SDS011;43388;46.308;4.600;2022-11-20T08:18:54;9.40;;;5.88;;
30543;SDS011;43388;46.308;4.600;2022-11-20T08:21:20;12.05;;;5.40;;
30543;SDS011;43388;46.308;4.600;2022-11-20T08:23:46;14.63;;;6.68;;
30543;SDS011;43388;46.308;4.600;2022-11-20T08:26:12;12.10;;;6.15;;
30543;SDS011;43388;46.308;4.600;2022-11-20T08:28:38;13.23;;;6.25;;
30543;SDS011;43388;46.308;4.600;2022-11-20T08:31:04;13.50;;;5.40;;
30543;SDS011;43388;46.308;4.600;2022-11-20T08:33:30;15.23;;;5.70;;
30543;SDS011;43388;46.308;4.600;2022-11-20T08:36:00;12.27;;;5.40;;
30543;SDS011;43388;46.308;4.600;2022-11-20T08:38:27;16.92;;;5.90;;
30543;SDS011;43388;46.308;4.600;2022-11-20T08:40:55;9.35;;;5.97;;
30543;SDS011;43388;46.308;4.600;2022-11-20T08:43:40;19.65;;;6.28;;
30543;SDS011;43388;46.308;4.600;2022-11-20T08:46:06;13.27;;;7.15;;
30543;SDS011;43388;46.308;4.600;2022-11-20T08:48:32;12.55;;;6.25;;
30543;SDS011;43388;46.308;4.600;2022-11-20T08:50:58;9.50;;;5.57;;
30543;SDS011;43388;46.308;4.600;2022-11-20T08:53:24;18.40;;;6.25;;
30543;SDS011;43388;46.308;4.600;2022-11-20T08:55:51;15.05;;;6.70;;
30543;SDS011;43388;46.308;4.600;2022-11-20T08:58:17;6.97;;;4.63;;
30543;SDS011;43388;46.308;4.600;2022-11-20T09:00:43;10.30;;;5.47;;
30543;SDS011;43388;46.308;4.600;2022-11-20T09:03:09;16.60;;;5.18;;
30543;SDS011;43388;46.308;4.600;2022-11-20T09:05:35;10.70;;;5.40;;
30543;SDS011;43388;46.308;4.600;2022-11-20T09:08:01;13.30;;;5.63;;
30543;SDS011;43388;46.308;4.600;2022-11-20T09:10:27;7.95;;;5.20;;
30543;SDS011;43388;46.308;4.600;2022-11-20T09:12:53;11.32;;;5.75;;
30543;SDS011;43388;46.308;4.600;2022-11-20T09:15:20;11.88;;;5.43;;
30543;SDS011;43388;46.308;4.600;2022-11-20T09:17:53;11.45;;;5.10;;
30543;SDS011;43388;46.308;4.600;2022-11-20T09:20:19;15.75;;;6.18;;
30543;SDS011;43388;46.308;4.600;2022-11-20T09:22:45;11.07;;;5.20;;
30543;SDS011;43388;46.308;4.600;2022-11-20T09:25:11;10.75;;;5.80;;
30543;SDS011;43388;46.308;4.600;2022-11-20T09:27:37;14.18;;;4.95;;
30543;SDS011;43388;46.308;4.600;2022-11-20T09:30:03;9.73;;;4.78;;
30543;SDS011;43388;46.308;4.600;2022-11-20T09:32:30;9.43;;;4.82;;
30543;SDS011;43388;46.308;4.600;2022-11-20T09:34:57;16.10;;;5.20;;
30543;SDS011;43388;46.308;4.600;2022-11-20T09:37:23;10.38;;;4.35;;
30543;SDS011;43388;46.308;4.600;2022-11-20T09:39:49;11.40;;;4.68;;
30543;SDS011;43388;46.308;4.600;2022-11-20T09:42:27;9.20;;;4.38;;
30543;SDS011;43388;46.308;4.600;2022-11-20T09:47:48;5.85;;;3.67;;
30543;SDS011;43388;46.308;4.600;2022-11-20T09:55:18;13.48;;;5.20;;
30543;SDS011;43388;46.308;4.600;2022-11-20T09:57:45;5.88;;;4.07;;
30543;SDS011;43388;46.308;4.600;2022-11-20T10:00:12;6.10;;;3.83;;
30543;SDS011;43388;46.308;4.600;2022-11-20T10:07:59;9.77;;;4.97;;
30543;SDS011;43388;46.308;4.600;2022-11-20T10:16:38;9.60;;;4.22;;
30543;SDS011;43388;46.308;4.600;2022-11-20T10:23:26;12.02;;;4.68;;
30543;SDS011;43388;46.308;4.600;2022-11-20T10:26:01;11.85;;;4.30;;
30543;SDS011;43388;46.308;4.600;2022-11-20T10:31:27;8.35;;;4.10;;
30543;SDS011;43388;46.308;4.600;2022-11-20T10:33:55;11.55;;;3.72;;
30543;SDS011;43388;46.308;4.600;2022-11-20T10:36:36;7.53;;;4.03;;
30543;SDS011;43388;46.308;4.600;2022-11-20T10:39:11;8.45;;;4.15;;
30543;SDS011;43388;46.308;4.600;2022-11-20T10:41:41;9.52;;;3.63;;
30543;SDS011;43388;46.308;4.600;2022-11-20T10:46:38;7.88;;;3.60;;
30543;SDS011;43388;46.308;4.600;2022-11-20T10:49:10;4.25;;;3.85;;
30543;SDS011;43388;46.308;4.600;2022-11-20T10:51:37;10.60;;;3.75;;
30543;SDS011;43388;46.308;4.600;2022-11-20T10:54:25;6.97;;;4.13;;
30543;SDS011;43388;46.308;4.600;2022-11-20T10:56:54;4.63;;;3.40;;
30543;SDS011;43388;46.308;4.600;2022-11-20T10:59:27;7.97;;;3.28;;
30543;SDS011;43388;46.308;4.600;2022-11-20T11:01:58;8.70;;;4.43;;
30543;SDS011;43388;46.308;4.600;2022-11-20T11:07:05;6.43;;;3.20;;
30543;SDS011;43388;46.308;4.600;2022-11-20T11:09:33;5.25;;;3.83;;
30543;SDS011;43388;46.308;4.600;2022-11-20T11:12:00;6.57;;;3.30;;
30543;SDS011;43388;46.308;4.600;2022-11-20T11:14:26;5.75;;;3.92;;
30543;SDS011;43388;46.308;4.600;2022-11-20T11:16:53;9.18;;;4.05;;
30543;SDS011;43388;46.308;4.600;2022-11-20T11:19:19;8.45;;;3.85;;
30543;SDS011;43388;46.308;4.600;2022-11-20T11:21:46;10.45;;;3.80;;
30543;SDS011;43388;46.308;4.600;2022-11-20T11:24:23;8.45;;;4.15;;
30543;SDS011;43388;46.308;4.600;2022-11-20T11:26:56;8.63;;;4.13;;
30543;SDS011;43388;46.308;4.600;2022-11-20T11:29:23;8.73;;;3.75;;
30543;SDS011;43388;46.308;4.600;2022-11-20T11:32:02;6.95;;;3.58;;
30543;SDS011;43388;46.308;4.600;2022-11-20T11:34:28;8.63;;;3.17;;
30543;SDS011;43388;46.308;4.600;2022-11-20T11:36:56;6.28;;;4.15;;
30543;SDS011;43388;46.308;4.600;2022-11-20T11:39:22;5.95;;;3.47;;
30543;SDS011;43388;46.308;4.600;2022-11-20T11:41:49;4.75;;;3.55;;
30543;SDS011;43388;46.308;4.600;2022-11-20T11:44:19;4.43;;;3.17;;
30543;SDS011;43388;46.308;4.600;2022-11-20T11:47:05;9.75;;;3.55;;
30543;SDS011;43388;46.308;4.600;2022-11-20T11:49:34;6.05;;;3.22;;
30543;SDS011;43388;46.308;4.600;2022-11-20T11:52:16;10.05;;;3.60;;
30543;SDS011;43388;46.308;4.600;2022-11-20T11:54:45;3.97;;;2.85;;
30543;SDS011;43388;46.308;4.600;2022-11-20T11:57:18;3.33;;;2.58;;
30543;SDS011;43388;46.308;4.600;2022-11-20T12:00:08;3.45;;;2.92;;
30543;SDS011;43388;46.308;4.600;2022-11-20T12:05:08;5.07;;;2.45;;
30543;SDS011;43388;46.308;4.600;2022-11-20T12:07:46;2.92;;;2.55;;
30543;SDS011;43388;46.308;4.600;2022-11-20T12:15:46;4.65;;;2.83;;
30543;SDS011;43388;46.308;4.600;2022-11-20T12:18:15;3.17;;;2.90;;
30543;SDS011;43388;46.308;4.600;2022-11-20T12:20:43;3.70;;;2.50;;
30543;SDS011;43388;46.308;4.600;2022-11-20T12:23:27;4.05;;;2.75;;
30543;SDS011;43388;46.308;4.600;2022-11-20T12:25:55;4.22;;;3.22;;
30543;SDS011;43388;46.308;4.600;2022-11-20T12:43:31;3.28;;;2.95;;
30543;SDS011;43388;46.308;4.600;2022-11-20T12:46:37;5.45;;;3.05;;
30543;SDS011;43388;46.308;4.600;2022-11-20T12:51:58;4.75;;;2.72;;
30543;SDS011;43388;46.308;4.600;2022-11-20T13:02:23;2.80;;;2.40;;
30543;SDS011;43388;46.308;4.600;2022-11-20T13:07:17;3.08;;;2.75;;
30543;SDS011;43388;46.308;4.600;2022-11-20T13:09:44;3.40;;;2.60;;
30543;SDS011;43388;46.308;4.600;2022-11-20T13:12:13;5.57;;;3.67;;
30543;SDS011;43388;46.308;4.600;2022-11-20T13:14:42;2.65;;;2.45;;
30543;SDS011;43388;46.308;4.600;2022-11-20T13:19:47;3.35;;;2.63;;
30543;SDS011;43388;46.308;4.600;2022-11-20T13:22:23;2.72;;;2.25;;
30543;SDS011;43388;46.308;4.600;2022-11-20T13:24:52;2.42;;;2.22;;
30543;SDS011;43388;46.308;4.600;2022-11-20T13:27:20;5.72;;;2.63;;
30543;SDS011;43388;46.308;4.600;2022-11-20T13:30:30;5.25;;;2.35;;
30543;SDS011;43388;46.308;4.600;2022-11-20T13:32:47;2.20;;;2.08;;
30543;SDS011;43388;46.308;4.600;2022-11-20T13:35:13;4.45;;;2.70;;
30543;SDS011;43388;46.308;4.600;2022-11-20T13:37:49;2.97;;;2.67;;
30543;SDS011;43388;46.308;4.600;2022-11-20T13:40:25;2.55;;;2.28;;
30543;SDS011;43388;46.308;4.600;2022-11-20T13:45:27;3.28;;;1.92;;
30543;SDS011;43388;46.308;4.600;2022-11-20T13:47:53;3.85;;;2.35;;
30543;SDS011;43388;46.308;4.600;2022-11-20T13:50:21;2.03;;;1.77;;
30543;SDS011;43388;46.308;4.600;2022-11-20T13:53:00;3.67;;;2.00;;
30543;SDS011;43388;46.308;4.600;2022-11-20T13:55:38;2.17;;;1.98;;
30543;SDS011;43388;46.308;4.600;2022-11-20T14:00:51;3.80;;;2.13;;
30543;SDS011;43388;46.308;4.600;2022-11-20T14:03:21;3.70;;;2.55;;
30543;SDS011;43388;46.308;4.600;2022-11-20T14:05:53;6.45;;;2.72;;
30543;SDS011;43388;46.308;4.600;2022-11-20T14:08:28;3.03;;;2.70;;
30543;SDS011;43388;46.308;4.600;2022-11-20T14:11:12;4.80;;;2.75;;
30543;SDS011;43388;46.308;4.600;2022-11-20T14:13:39;2.75;;;2.55;;
30543;SDS011;43388;46.308;4.600;2022-11-20T14:16:05;3.55;;;2.05;;
30543;SDS011;43388;46.308;4.600;2022-11-20T14:18:31;2.40;;;2.20;;
30543;SDS011;43388;46.308;4.600;2022-11-20T14:20:59;4.25;;;2.42;;
30543;SDS011;43388;46.308;4.600;2022-11-20T14:23:26;2.38;;;2.25;;
30543;SDS011;43388;46.308;4.600;2022-11-20T14:25:53;3.03;;;2.80;;
30543;SDS011;43388;46.308;4.600;2022-11-20T14:28:26;3.25;;;2.67;;
30543;SDS011;43388;46.308;4.600;2022-11-20T14:30:52;3.58;;;2.28;;
30543;SDS011;43388;46.308;4.600;2022-11-20T14:33:19;4.50;;;2.47;;
30543;SDS011;43388;46.308;4.600;2022-11-20T14:35:50;3.72;;;2.80;;
30543;SDS011;43388;46.308;4.600;2022-11-20T14:38:18;3.42;;;3.13;;
30543;SDS011;43388;46.308;4.600;2022-11-20T14:40:45;7.82;;;3.00;;
30543;SDS011;43388;46.308;4.600;2022-11-20T14:48:12;3.38;;;2.50;;
30543;SDS011;43388;46.308;4.600;2022-11-20T14:50:38;2.67;;;2.40;;
30543;SDS011;43388;46.308;4.600;2022-11-20T14:53:04;3.50;;;2.97;;
30543;SDS011;43388;46.308;4.600;2022-11-20T14:55:32;4.85;;;3.63;;
30543;SDS011;43388;46.308;4.600;2022-11-20T14:58:02;3.00;;;2.45;;
30543;SDS011;43388;46.308;4.600;2022-11-20T15:00:29;5.88;;;3.38;;
30543;SDS011;43388;46.308;4.600;2022-11-20T15:02:56;3.88;;;3.15;;
30543;SDS011;43388;46.308;4.600;2022-11-20T15:05:24;6.75;;;3.88;;
30543;SDS011;43388;46.308;4.600;2022-11-20T15:07:52;7.55;;;3.53;;
30543;SDS011;43388;46.308;4.600;2022-11-20T15:10:29;3.83;;;3.35;;
30543;SDS011;43388;46.308;4.600;2022-11-20T15:12:57;7.15;;;3.17;;
30543;SDS011;43388;46.308;4.600;2022-11-20T15:18:13;5.28;;;4.05;;
30543;SDS011;43388;46.308;4.600;2022-11-20T15:20:40;6.80;;;3.88;;
30543;SDS011;43388;46.308;4.600;2022-11-20T15:23:10;5.25;;;4.07;;
30543;SDS011;43388;46.308;4.600;2022-11-20T15:25:37;7.43;;;3.85;;
30543;SDS011;43388;46.308;4.600;2022-11-20T15:28:04;4.93;;;3.70;;
30543;SDS011;43388;46.308;4.600;2022-11-20T15:30:30;3.97;;;3.22;;
30543;SDS011;43388;46.308;4.600;2022-11-20T15:32:56;5.05;;;3.33;;
30543;SDS011;43388;46.308;4.600;2022-11-20T15:35:22;9.63;;;4.18;;
30543;SDS011;43388;46.308;4.600;2022-11-20T15:37:48;7.15;;;3.83;;
30543;SDS011;43388;46.308;4.600;2022-11-20T15:40:14;6.53;;;3.75;;
30543;SDS011;43388;46.308;4.600;2022-11-20T15:42:40;6.78;;;4.22;;
30543;SDS011;43388;46.308;4.600;2022-11-20T15:45:26;7.20;;;3.88;;
30543;SDS011;43388;46.308;4.600;2022-11-20T15:47:54;4.45;;;3.53;;
30543;SDS011;43388;46.308;4.600;2022-11-20T15:50:20;4.53;;;3.13;;
30543;SDS011;43388;46.308;4.600;2022-11-20T15:52:46;5.88;;;3.88;;
30543;SDS011;43388;46.308;4.600;2022-11-20T15:55:12;3.97;;;3.22;;
30543;SDS011;43388;46.308;4.600;2022-11-20T15:57:38;5.22;;;2.83;;
30543;SDS011;43388;46.308;4.600;2022-11-20T16:00:05;3.92;;;3.38;;
30543;SDS011;43388;46.308;4.600;2022-11-20T16:02:31;7.35;;;3.83;;
30543;SDS011;43388;46.308;4.600;2022-11-20T16:04:57;7.47;;;4.80;;
30543;SDS011;43388;46.308;4.600;2022-11-20T16:07:23;5.10;;;3.70;;
30543;SDS011;43388;46.308;4.600;2022-11-20T16:09:49;5.90;;;3.17;;
30543;SDS011;43388;46.308;4.600;2022-11-20T16:12:15;4.13;;;2.80;;
30543;SDS011;43388;46.308;4.600;2022-11-20T16:15:01;3.88;;;3.33;;
30543;SDS011;43388;46.308;4.600;2022-11-20T16:17:45;3.28;;;2.97;;
30543;SDS011;43388;46.308;4.600;2022-11-20T16:20:11;5.25;;;3.50;;